Time;durP1;ratioP1;P1;durP2;ratioP2;P2;SDS_P1;SDS_P2;PMS_P1;PMS_P2;Temp;Humidity;BMP_temperature;BMP_pressure;BME280_temperature;BME280_humidity;BME280_pressure;Samples;Min_cycle;Max_cycle;Signal;HPM_P1;HPM_P2
2023/04/19 02:02:28;;;;;;;9.32;5.47;;;;;;;;;;4314976;28;20058;-74
2023/04/19 02:04:56;;;;;;;8.20;4.57;;;;;;;;;;4233463;33;20103;-72
2023/04/19 02:07:22;;;;;;;12.80;8.68;;;;;;;;;;4236800;33;20388;-72
2023/04/19 02:09:49;;;;;;;15.25;9.15;;;;;;;;;;4237305;33;20077;-74
2023/04/19 02:12:15;;;;;;;20.02;10.32;;;;;;;;;;4237246;33;20107;-72
2023/04/19 02:14:43;;;;;;;15.35;9.43;;;;;;;;;;4235673;33;20084;-73
2023/04/19 02:17:37;;;;;;;19.55;9.68;;;;;;;;;;4235565;33;20042;-72
2023/04/19 02:20:04;;;;;;;15.27;9.48;;;;;;;;;;4236305;33;20058;-72
2023/04/19 02:22:30;;;;;;;16.87;9.05;;;;;;;;;;4235723;33;20408;-74
2023/04/19 02:24:56;;;;;;;18.25;8.52;;;;;;;;;;4235163;33;20043;-72
2023/04/19 02:27:26;;;;;;;15.27;8.85;;;;;;;;;;4237409;33;20406;-72
2023/04/19 02:29:53;;;;;;;17.37;9.15;;;;;;;;;;4247356;33;20105;-73
2023/04/19 02:32:19;;;;;;;15.95;9.23;;;;;;;;;;4236701;33;20062;-72
2023/04/19 02:34:46;;;;;;;16.60;9.05;;;;;;;;;;4235399;33;20062;-73
2023/04/19 02:37:12;;;;;;;21.08;8.75;;;;;;;;;;4251162;33;20417;-70
2023/04/19 02:39:40;;;;;;;13.20;8.05;;;;;;;;;;4249504;33;20046;-71
2023/04/19 02:42:12;;;;;;;17.55;8.82;;;;;;;;;;4253570;33;20079;-72
2023/04/19 02:44:39;;;;;;;12.82;8.95;;;;;;;;;;4234095;33;20396;-71
2023/04/19 02:47:05;;;;;;;15.70;8.00;;;;;;;;;;4246730;33;20073;-70
2023/04/19 02:49:34;;;;;;;14.40;9.45;;;;;;;;;;4251310;33;20052;-71
2023/04/19 02:52:00;;;;;;;13.40;8.30;;;;;;;;;;4253767;33;20169;-70
2023/04/19 02:54:27;;;;;;;9.18;6.18;;;;;;;;;;4241273;33;20080;-74
2023/04/19 02:56:53;;;;;;;17.40;7.03;;;;;;;;;;4239540;33;20938;-72
2023/04/19 02:59:19;;;;;;;11.27;6.18;;;;;;;;;;4238964;33;20039;-71
2023/04/19 03:01:45;;;;;;;17.17;6.85;;;;;;;;;;4238975;33;20381;-70
2023/04/19 03:04:12;;;;;;;15.70;6.93;;;;;;;;;;4239406;33;20054;-71
2023/04/19 03:06:38;;;;;;;11.80;6.50;;;;;;;;;;4236197;33;20740;-73
2023/04/19 03:09:05;;;;;;;15.23;6.97;;;;;;;;;;4224082;33;20194;-71
2023/04/19 03:11:31;;;;;;;10.77;5.90;;;;;;;;;;4225586;33;20178;-70
2023/04/19 03:13:58;;;;;;;10.55;5.40;;;;;;;;;;4224699;34;20051;-72
2023/04/19 03:16:25;;;;;;;12.82;6.80;;;;;;;;;;4236378;33;20050;-71
2023/04/19 03:18:51;;;;;;;10.35;5.05;;;;;;;;;;4231978;33;20039;-71
2023/04/19 03:21:19;;;;;;;8.85;4.90;;;;;;;;;;4237877;33;20302;-72
2023/04/19 03:23:45;;;;;;;10.45;6.37;;;;;;;;;;4238136;33;20119;-72
2023/04/19 03:26:13;;;;;;;13.23;5.25;;;;;;;;;;4239235;33;20042;-71
2023/04/19 03:28:40;;;;;;;13.25;6.70;;;;;;;;;;4237042;33;20440;-77
2023/04/19 03:31:08;;;;;;;9.75;5.82;;;;;;;;;;4239194;33;20176;-70
2023/04/19 03:33:34;;;;;;;7.53;4.82;;;;;;;;;;4238610;33;20042;-72
2023/04/19 03:36:00;;;;;;;12.02;5.87;;;;;;;;;;4224886;34;20118;-71
2023/04/19 03:38:27;;;;;;;13.90;6.10;;;;;;;;;;4216746;33;20068;-72
2023/04/19 03:40:54;;;;;;;12.80;5.82;;;;;;;;;;4220304;34;20047;-70
2023/04/19 03:43:21;;;;;;;15.57;7.22;;;;;;;;;;4224262;34;20194;-71
2023/04/19 03:45:47;;;;;;;15.13;7.37;;;;;;;;;;4209039;34;20170;-72
2023/04/19 03:48:14;;;;;;;17.60;6.82;;;;;;;;;;4210512;34;20039;-71
2023/04/19 03:50:40;;;;;;;11.10;6.55;;;;;;;;;;4209091;34;20441;-77
2023/04/19 03:53:07;;;;;;;10.98;6.72;;;;;;;;;;4206802;34;20064;-71
2023/04/19 03:55:34;;;;;;;9.20;6.25;;;;;;;;;;4209927;34;20050;-71
2023/04/19 03:58:00;;;;;;;15.30;6.45;;;;;;;;;;4196894;34;20047;-74
2023/04/19 04:00:27;;;;;;;16.58;5.95;;;;;;;;;;4196616;34;20077;-72
2023/04/19 04:02:54;;;;;;;13.05;6.40;;;;;;;;;;4194866;34;20059;-79
2023/04/19 04:05:20;;;;;;;12.07;5.68;;;;;;;;;;4195171;34;20047;-72
2023/04/19 04:07:47;;;;;;;11.55;5.90;;;;;;;;;;4217542;34;20414;-71
2023/04/19 04:10:13;;;;;;;7.62;5.40;;;;;;;;;;4223510;34;20464;-75
2023/04/19 04:12:40;;;;;;;9.40;6.12;;;;;;;;;;4222878;34;20100;-72
2023/04/19 04:15:07;;;;;;;14.23;6.12;;;;;;;;;;4220412;34;20428;-75
2023/04/19 04:17:35;;;;;;;17.52;5.53;;;;;;;;;;4221025;34;20054;-74
2023/04/19 04:20:02;;;;;;;17.67;6.78;;;;;;;;;;4224571;34;20046;-72
2023/04/19 04:22:29;;;;;;;15.77;7.40;;;;;;;;;;4221133;34;20042;-72
2023/04/19 04:24:56;;;;;;;15.93;6.28;;;;;;;;;;4224071;34;20100;-73
2023/04/19 04:27:27;;;;;;;;;;;;;;;;;;4221180;34;20055;-73
2023/04/19 04:29:53;;;;;;;;;;;;;;;;;;4235042;33;19990;-72
2023/04/19 04:32:21;;;;;;;;;;;;;;;;;;4237695;33;20016;-72
2023/04/19 04:34:47;;;;;;;;;;;;;;;;;;4237976;33;19949;-72
2023/04/19 04:37:15;;;;;;;;;;;;;;;;;;4222457;33;19955;-72
2023/04/19 04:39:41;;;;;;;;;;;;;;;;;;4223211;33;19958;-72
2023/04/19 04:42:08;;;;;;;;;;;;;;;;;;4219953;33;19963;-73
2023/04/19 04:44:33;;;;;;;;;;;;;;;;;;4218776;33;20077;-72
2023/04/19 04:47:00;;;;;;;11.00;6.00;;;;;;;;;;4220497;33;19938;-78
2023/04/19 04:49:26;;;;;;;7.97;5.05;;;;;;;;;;4233315;33;20077;-72
2023/04/19 04:51:52;;;;;;;13.90;6.53;;;;;;;;;;4235629;33;20077;-71
2023/04/19 04:54:19;;;;;;;15.13;6.70;;;;;;;;;;4238019;33;20068;-72
2023/04/19 04:56:46;;;;;;;9.55;4.78;;;;;;;;;;4237672;33;20043;-72
2023/04/19 04:59:12;;;;;;;14.13;6.53;;;;;;;;;;4235412;33;20042;-71
2023/04/19 05:01:39;;;;;;;12.07;5.75;;;;;;;;;;4237416;33;20065;-73
2023/04/19 05:04:06;;;;;;;8.50;5.18;;;;;;;;;;4236456;33;20095;-71
2023/04/19 05:06:32;;;;;;;12.30;4.47;;;;;;;;;;4236815;33;20105;-71
2023/04/19 05:08:58;;;;;;;11.57;5.60;;;;;;;;;;4247413;33;20038;-78
2023/04/19 05:11:26;;;;;;;5.95;3.58;;;;;;;;;;4248388;33;20038;-74
2023/04/19 05:13:52;;;;;;;17.62;6.53;;;;;;;;;;4222845;33;20439;-71
2023/04/19 05:16:19;;;;;;;9.25;5.03;;;;;;;;;;4222306;34;20066;-72
2023/04/19 05:18:46;;;;;;;7.60;4.97;;;;;;;;;;4223184;34;20112;-72
2023/04/19 05:21:12;;;;;;;10.90;5.87;;;;;;;;;;4220666;34;20068;-78
2023/04/19 05:23:40;;;;;;;13.40;4.78;;;;;;;;;;4223362;34;20610;-73
2023/04/19 05:26:06;;;;;;;11.18;5.20;;;;;;;;;;4221660;34;20458;-73
2023/04/19 05:28:32;;;;;;;15.38;7.05;;;;;;;;;;4223637;34;20069;-71
2023/04/19 05:31:00;;;;;;;9.00;6.10;;;;;;;;;;4219529;34;20164;-77
2023/04/19 05:33:27;;;;;;;15.15;7.07;;;;;;;;;;4222662;34;20867;-71
2023/04/19 05:35:53;;;;;;;7.90;5.37;;;;;;;;;;4208390;34;20051;-71
2023/04/19 05:38:20;;;;;;;9.48;6.03;;;;;;;;;;4208484;34;20065;-71
2023/04/19 05:40:46;;;;;;;14.23;6.37;;;;;;;;;;4194358;34;20086;-70
2023/04/19 05:43:12;;;;;;;19.90;7.68;;;;;;;;;;4182943;34;20052;-72
2023/04/19 05:45:39;;;;;;;12.80;6.37;;;;;;;;;;4208988;34;20043;-71
2023/04/19 05:48:05;;;;;;;7.05;4.97;;;;;;;;;;4209366;34;20389;-71
2023/04/19 05:50:37;;;;;;;9.98;5.50;;;;;;;;;;4207667;34;20095;-72
2023/04/19 05:53:05;;;;;;;13.52;5.53;;;;;;;;;;4207698;34;20135;-73
2023/04/19 05:55:31;;;;;;;8.88;5.12;;;;;;;;;;4205102;34;20055;-71
2023/04/19 05:57:57;;;;;;;11.12;6.97;;;;;;;;;;4191602;34;20105;-71
2023/04/19 06:00:27;;;;;;;12.50;6.05;;;;;;;;;;4180466;34;20081;-73
2023/04/19 06:02:54;;;;;;;12.55;5.97;;;;;;;;;;4178537;34;20089;-73
2023/04/19 06:05:21;;;;;;;10.70;6.03;;;;;;;;;;4177987;34;20501;-77
2023/04/19 06:07:47;;;;;;;8.40;6.18;;;;;;;;;;4141171;34;20044;-72
2023/04/19 06:10:14;;;;;;;13.50;6.10;;;;;;;;;;4138779;34;20412;-72
2023/04/19 06:12:40;;;;;;;8.77;5.95;;;;;;;;;;4151309;34;20037;-75
2023/04/19 06:15:07;;;;;;;8.77;5.57;;;;;;;;;;4161779;34;20040;-71
2023/04/19 06:17:34;;;;;;;9.40;6.60;;;;;;;;;;4185860;34;20359;-72
2023/04/19 06:20:00;;;;;;;15.07;6.65;;;;;;;;;;4196019;34;20051;-72
2023/04/19 06:22:33;;;;;;;10.10;6.85;;;;;;;;;;4208663;34;20509;-72
2023/04/19 06:24:59;;;;;;;8.90;5.90;;;;;;;;;;4207918;34;20059;-72
2023/04/19 06:27:26;;;;;;;9.40;6.10;;;;;;;;;;4208902;34;20118;-71
2023/04/19 06:29:52;;;;;;;11.90;6.40;;;;;;;;;;4230013;33;20079;-72
2023/04/19 06:32:18;;;;;;;11.30;6.82;;;;;;;;;;4235145;33;20686;-72
2023/04/19 06:34:44;;;;;;;13.52;6.60;;;;;;;;;;4236081;33;20058;-72
2023/04/19 06:37:10;;;;;;;12.77;8.55;;;;;;;;;;4236392;33;20038;-72
2023/04/19 06:39:37;;;;;;;8.77;5.12;;;;;;;;;;4234680;33;20184;-72
2023/04/19 06:42:04;;;;;;;19.17;8.30;;;;;;;;;;4234058;33;20055;-76
2023/04/19 06:44:31;;;;;;;11.43;6.95;;;;;;;;;;4249768;33;20057;-72
2023/04/19 06:46:57;;;;;;;15.07;8.00;;;;;;;;;;4250385;33;20068;-71
2023/04/19 06:49:23;;;;;;;11.10;6.72;;;;;;;;;;4237702;33;20156;-71
2023/04/19 06:51:49;;;;;;;16.23;7.47;;;;;;;;;;4234845;33;20064;-79
2023/04/19 06:54:16;;;;;;;18.67;8.52;;;;;;;;;;4221698;34;20260;-73
2023/04/19 06:56:44;;;;;;;16.60;8.50;;;;;;;;;;4220350;34;20031;-73
2023/04/19 06:59:15;;;;;;;14.48;6.93;;;;;;;;;;4220668;34;20064;-72
2023/04/19 07:01:42;;;;;;;18.67;7.87;;;;;;;;;;4207381;34;20043;-72
2023/04/19 07:04:08;;;;;;;11.68;7.05;;;;;;;;;;4204645;34;20051;-72
2023/04/19 07:06:34;;;;;;;12.77;6.75;;;;;;;;;;4207591;34;20118;-71
2023/04/19 07:09:01;;;;;;;13.88;7.40;;;;;;;;;;4207778;34;20826;-72
2023/04/19 07:11:27;;;;;;;11.55;6.60;;;;;;;;;;4208489;34;20061;-72
2023/04/19 07:13:53;;;;;;;14.02;7.03;;;;;;;;;;4207193;34;20435;-72
2023/04/19 07:16:20;;;;;;;10.63;6.32;;;;;;;;;;4177405;34;20061;-73
2023/04/19 07:18:46;;;;;;;13.50;7.37;;;;;;;;;;4179856;34;20869;-73
2023/04/19 07:21:12;;;;;;;12.63;6.80;;;;;;;;;;4176942;34;20048;-72
2023/04/19 07:23:39;;;;;;;14.50;7.22;;;;;;;;;;4160150;34;20053;-72
2023/04/19 07:26:05;;;;;;;10.60;6.20;;;;;;;;;;4199697;34;20038;-72
2023/04/19 07:28:31;;;;;;;14.65;7.82;;;;;;;;;;4170947;34;20081;-75
2023/04/19 07:30:57;;;;;;;14.48;7.22;;;;;;;;;;4170952;34;20048;-74
2023/04/19 07:33:24;;;;;;;11.10;7.57;;;;;;;;;;4184052;34;20129;-73
2023/04/19 07:35:50;;;;;;;10.57;6.18;;;;;;;;;;4185596;34;20065;-73
2023/04/19 07:38:18;;;;;;;11.43;6.35;;;;;;;;;;4186013;34;20047;-72
2023/04/19 07:40:44;;;;;;;9.40;7.05;;;;;;;;;;4188653;34;20033;-78
2023/04/19 07:43:10;;;;;;;11.80;7.12;;;;;;;;;;4195014;34;20056;-73
2023/04/19 07:45:37;;;;;;;11.98;8.10;;;;;;;;;;4197793;34;20069;-73
2023/04/19 07:48:03;;;;;;;12.63;7.55;;;;;;;;;;4232390;33;20342;-71
2023/04/19 07:50:29;;;;;;;10.27;7.05;;;;;;;;;;4238302;33;20050;-73
2023/04/19 07:52:56;;;;;;;13.45;7.65;;;;;;;;;;4251678;33;20121;-77
2023/04/19 07:55:22;;;;;;;12.95;7.05;;;;;;;;;;4251356;33;20557;-72
2023/04/19 07:57:49;;;;;;;16.02;7.70;;;;;;;;;;4237072;33;20046;-72
2023/04/19 08:00:15;;;;;;;13.23;7.05;;;;;;;;;;4261277;33;20053;-73
2023/04/19 08:02:42;;;;;;;9.88;6.93;;;;;;;;;;4273282;33;20349;-73
2023/04/19 08:05:09;;;;;;;15.20;6.25;;;;;;;;;;4270537;33;20501;-72
2023/04/19 08:07:35;;;;;;;8.90;5.65;;;;;;;;;;4272693;33;20823;-72
2023/04/19 08:10:01;;;;;;;13.77;6.78;;;;;;;;;;4273579;33;20118;-73
2023/04/19 08:12:27;;;;;;;10.40;7.53;;;;;;;;;;4272918;33;20161;-72
2023/04/19 08:14:53;;;;;;;11.88;6.43;;;;;;;;;;4272403;33;20113;-73
2023/04/19 08:17:20;;;;;;;10.60;6.80;;;;;;;;;;4248540;33;20061;-73
2023/04/19 08:19:48;;;;;;;7.85;6.28;;;;;;;;;;4251447;33;20180;-73
2023/04/19 08:22:15;;;;;;;5.25;3.83;;;;;;;;;;4243530;33;20472;-74
2023/04/19 08:24:42;;;;;;;10.13;6.25;;;;;;;;;;4238215;33;20744;-71
2023/04/19 08:27:08;;;;;;;9.07;5.75;;;;;;;;;;4242174;33;20425;-76
2023/04/19 08:29:34;;;;;;;25.52;16.62;;;;;;;;;;4241054;33;20057;-71
2023/04/19 08:32:01;;;;;;;23.58;14.55;;;;;;;;;;4215295;34;20052;-72
2023/04/19 08:34:27;;;;;;;25.42;17.52;;;;;;;;;;4215159;34;20413;-73
2023/04/19 08:36:53;;;;;;;8.85;6.90;;;;;;;;;;4215604;34;20070;-73
2023/04/19 08:39:19;;;;;;;6.45;4.85;;;;;;;;;;4214596;34;20100;-78
2023/04/19 08:41:47;;;;;;;6.00;5.35;;;;;;;;;;4207897;34;20281;-72
2023/04/19 08:44:13;;;;;;;8.93;4.90;;;;;;;;;;4180838;34;20044;-74
2023/04/19 08:46:40;;;;;;;6.87;5.35;;;;;;;;;;4179408;34;20048;-71
2023/04/19 08:49:07;;;;;;;6.60;4.78;;;;;;;;;;4180077;34;20577;-71
2023/04/19 08:51:33;;;;;;;7.15;4.90;;;;;;;;;;4151926;34;20049;-78
2023/04/19 08:54:01;;;;;;;11.63;7.00;;;;;;;;;;4149434;34;20264;-72
2023/04/19 08:56:29;;;;;;;11.80;6.28;;;;;;;;;;4174187;34;20644;-72
2023/04/19 08:58:55;;;;;;;8.50;4.78;;;;;;;;;;4163886;34;21038;-74
2023/04/19 09:01:22;;;;;;;7.97;5.10;;;;;;;;;;4159460;34;20450;-77
2023/04/19 09:03:48;;;;;;;10.25;5.15;;;;;;;;;;4173073;34;20065;-72
2023/04/19 09:06:14;;;;;;;5.97;4.70;;;;;;;;;;4159300;34;20061;-74
2023/04/19 09:08:40;;;;;;;6.75;4.82;;;;;;;;;;4161224;34;20029;-72
2023/04/19 09:11:07;;;;;;;9.02;4.87;;;;;;;;;;4160500;34;20060;-73
2023/04/19 09:13:37;;;;;;;5.05;3.90;;;;;;;;;;4157050;34;20046;-72
2023/04/19 09:16:03;;;;;;;3.95;3.65;;;;;;;;;;4158536;34;20074;-71
2023/04/19 09:18:30;;;;;;;4.93;3.83;;;;;;;;;;4161789;34;20069;-71
2023/04/19 09:20:56;;;;;;;24.40;13.77;;;;;;;;;;4160967;34;20052;-72
2023/04/19 09:23:27;;;;;;;19.80;12.07;;;;;;;;;;4175313;34;20838;-74
2023/04/19 09:26:00;;;;;;;15.55;9.88;;;;;;;;;;4215104;34;20072;-71
2023/04/19 09:28:27;;;;;;;20.20;12.63;;;;;;;;;;4220493;34;20431;-72
2023/04/19 09:30:54;;;;;;;5.97;4.05;;;;;;;;;;4221763;34;20074;-73
2023/04/19 09:33:30;;;;;;;7.65;5.45;;;;;;;;;;4220585;34;20043;-73
2023/04/19 09:35:58;;;;;;;6.32;5.22;;;;;;;;;;4221918;34;20047;-73
2023/04/19 09:38:45;;;;;;;7.78;5.60;;;;;;;;;;4259311;33;20396;-72
2023/04/19 09:41:11;;;;;;;8.98;5.22;;;;;;;;;;4258183;33;20054;-74
2023/04/19 09:43:37;;;;;;;7.28;4.70;;;;;;;;;;4260454;33;20049;-72
2023/04/19 09:46:03;;;;;;;9.38;6.10;;;;;;;;;;4258345;33;20054;-73
2023/04/19 09:48:29;;;;;;;8.73;6.32;;;;;;;;;;4259255;33;20058;-72
2023/04/19 09:50:57;;;;;;;9.45;6.20;;;;;;;;;;4257581;33;20597;-74
2023/04/19 09:53:24;;;;;;;12.77;6.10;;;;;;;;;;4258418;33;20240;-72
2023/04/19 09:55:51;;;;;;;15.73;8.50;;;;;;;;;;4259349;33;20053;-73
2023/04/19 09:58:18;;;;;;;18.83;8.80;;;;;;;;;;4259948;33;20075;-73
2023/04/19 10:00:46;;;;;;;7.75;5.35;;;;;;;;;;4257610;33;20074;-75
2023/04/19 10:03:18;;;;;;;9.80;5.90;;;;;;;;;;4264888;33;20061;-71
2023/04/19 10:05:45;;;;;;;8.13;5.95;;;;;;;;;;4250067;33;20046;-71
2023/04/19 10:08:11;;;;;;;13.00;7.12;;;;;;;;;;4244184;33;20068;-71
2023/04/19 10:10:38;;;;;;;11.40;7.60;;;;;;;;;;4242364;33;20054;-72
2023/04/19 10:13:06;;;;;;;8.93;6.25;;;;;;;;;;4239986;33;20050;-71
2023/04/19 10:15:34;;;;;;;16.20;7.20;;;;;;;;;;4237497;33;20399;-71
2023/04/19 10:18:01;;;;;;;9.02;6.70;;;;;;;;;;4237545;33;20064;-72
2023/04/19 10:20:40;;;;;;;13.82;8.60;;;;;;;;;;4235878;33;20107;-74
2023/04/19 10:23:10;;;;;;;8.98;6.07;;;;;;;;;;4235988;33;20104;-72
2023/04/19 10:25:37;;;;;;;60.80;22.83;;;;;;;;;;4234467;33;20074;-72
2023/04/19 10:28:03;;;;;;;8.55;6.18;;;;;;;;;;4222343;34;20038;-72
2023/04/19 10:30:30;;;;;;;11.35;6.70;;;;;;;;;;4212261;34;20472;-73
2023/04/19 10:33:01;;;;;;;12.70;8.05;;;;;;;;;;4211760;34;20035;-72
2023/04/19 10:35:33;;;;;;;16.35;8.93;;;;;;;;;;4213698;34;20047;-72
2023/04/19 10:38:10;;;;;;;10.13;6.68;;;;;;;;;;4225642;33;20121;-72
2023/04/19 10:40:53;;;;;;;10.68;7.50;;;;;;;;;;4231067;33;20392;-73
2023/04/19 10:43:20;;;;;;;13.38;7.80;;;;;;;;;;4225017;33;20058;-73
2023/04/19 10:45:47;;;;;;;11.77;8.13;;;;;;;;;;4224304;33;20088;-73
2023/04/19 10:48:25;;;;;;;17.12;8.68;;;;;;;;;;4235750;33;20443;-72
2023/04/19 10:50:58;;;;;;;18.73;11.30;;;;;;;;;;4235990;33;20431;-74
2023/04/19 10:53:42;;;;;;;9.30;6.70;;;;;;;;;;4236598;33;20038;-72
2023/04/19 10:56:08;;;;;;;12.25;7.32;;;;;;;;;;4234056;33;20064;-79
2023/04/19 10:58:53;;;;;;;9.45;6.25;;;;;;;;;;4236973;33;20683;-72
2023/04/19 11:01:36;;;;;;;10.80;7.12;;;;;;;;;;4410184;28;20114;-73
2023/04/19 11:04:02;;;;;;;14.80;8.43;;;;;;;;;;4249658;33;20057;-71
2023/04/19 11:06:29;;;;;;;10.57;8.10;;;;;;;;;;4250900;33;20056;-71
2023/04/19 11:08:55;;;;;;;15.18;7.85;;;;;;;;;;4249896;33;20052;-73
2023/04/19 11:11:22;;;;;;;16.37;9.52;;;;;;;;;;4250414;33;20089;-72
2023/04/19 11:13:48;;;;;;;10.00;6.85;;;;;;;;;;4253397;33;20582;-75
2023/04/19 11:16:15;;;;;;;12.02;7.18;;;;;;;;;;4253170;33;20615;-72
2023/04/19 11:18:40;;;;;;;10.82;6.82;;;;;;;;;;4253767;33;20030;-71
2023/04/19 11:21:11;;;;;;;11.85;6.72;;;;;;;;;;4253257;33;20038;-75
2023/04/19 11:23:37;;;;;;;8.55;6.80;;;;;;;;;;4252690;33;20451;-74
2023/04/19 11:26:03;;;;;;;7.37;5.78;;;;;;;;;;4251629;33;20524;-73
2023/04/19 11:28:31;;;;;;;8.10;6.05;;;;;;;;;;4253199;33;20034;-72
2023/04/19 11:30:58;;;;;;;7.30;5.72;;;;;;;;;;4253006;33;20069;-79
2023/04/19 11:35:57;;;;;;;12.68;5.93;;;;;;;;;;4253322;33;20042;-71
2023/04/19 11:38:26;;;;;;;7.50;6.15;;;;;;;;;;4252680;33;20560;-73
2023/04/19 11:41:02;;;;;;;11.02;5.95;;;;;;;;;;4266309;33;20145;-77
2023/04/19 11:43:35;;;;;;;7.12;5.55;;;;;;;;;;4265770;33;20438;-73
2023/04/19 11:46:07;;;;;;;10.25;5.40;;;;;;;;;;4266567;33;20183;-72
2023/04/19 11:48:33;;;;;;;7.60;5.32;;;;;;;;;;4267034;33;20045;-79
2023/04/19 11:51:00;;;;;;;8.05;5.40;;;;;;;;;;4265074;33;20053;-72
2023/04/19 11:53:27;;;;;;;8.10;6.10;;;;;;;;;;4267255;33;20112;-73
2023/04/19 11:55:55;;;;;;;8.07;5.85;;;;;;;;;;4267863;33;20570;-73
2023/04/19 11:58:28;;;;;;;8.65;6.53;;;;;;;;;;4267755;33;20038;-73
2023/04/19 12:00:55;;;;;;;6.18;5.05;;;;;;;;;;4264671;33;20424;-72
2023/04/19 12:03:25;;;;;;;7.00;6.28;;;;;;;;;;4279679;33;20095;-74
2023/04/19 12:05:52;;;;;;;8.68;6.35;;;;;;;;;;4280743;33;20533;-74
2023/04/19 12:08:28;;;;;;;8.50;6.68;;;;;;;;;;4281326;33;20055;-72
2023/04/19 12:10:56;;;;;;;8.25;6.57;;;;;;;;;;4279953;33;20063;-75
2023/04/19 12:13:23;;;;;;;8.15;7.10;;;;;;;;;;4280728;33;20508;-74
2023/04/19 12:15:57;;;;;;;9.57;7.18;;;;;;;;;;4281882;33;20071;-73
2023/04/19 12:18:23;;;;;;;8.60;6.07;;;;;;;;;;4278718;33;20080;-73
2023/04/19 12:20:50;;;;;;;8.10;5.80;;;;;;;;;;4281663;33;20065;-73
2023/04/19 12:23:17;;;;;;;9.85;6.15;;;;;;;;;;4281366;33;20033;-74
2023/04/19 12:25:47;;;;;;;19.60;11.20;;;;;;;;;;4281419;33;20087;-73
2023/04/19 12:28:14;;;;;;;10.75;7.05;;;;;;;;;;4281551;33;20181;-73
2023/04/19 12:30:40;;;;;;;9.32;5.75;;;;;;;;;;4263695;33;20054;-73
2023/04/19 12:33:07;;;;;;;7.10;6.25;;;;;;;;;;4267133;33;20067;-73
2023/04/19 12:35:34;;;;;;;11.15;6.60;;;;;;;;;;4265590;33;20065;-73
2023/04/19 12:38:01;;;;;;;9.50;7.12;;;;;;;;;;4266319;33;20033;-72
2023/04/19 12:40:28;;;;;;;7.75;5.72;;;;;;;;;;4260873;33;20095;-74
2023/04/19 12:42:54;;;;;;;8.63;5.93;;;;;;;;;;4251697;33;20052;-73
2023/04/19 12:45:20;;;;;;;12.02;8.07;;;;;;;;;;4249935;33;20086;-73
2023/04/19 12:47:46;;;;;;;8.20;5.40;;;;;;;;;;4251657;33;20083;-74
2023/04/19 12:50:19;;;;;;;8.23;5.37;;;;;;;;;;4250469;33;20065;-73
2023/04/19 12:52:45;;;;;;;9.13;5.75;;;;;;;;;;4263055;33;20211;-73
2023/04/19 12:55:12;;;;;;;5.97;5.30;;;;;;;;;;4249925;33;20046;-73
2023/04/19 12:57:38;;;;;;;6.22;5.37;;;;;;;;;;4230936;33;20043;-74
2023/04/19 13:00:06;;;;;;;9.07;5.47;;;;;;;;;;4234661;33;20062;-72
2023/04/19 13:02:32;;;;;;;8.05;5.85;;;;;;;;;;4245220;33;20076;-75
2023/04/19 13:04:59;;;;;;;5.80;4.97;;;;;;;;;;4255414;33;20442;-72
2023/04/19 13:07:25;;;;;;;6.25;4.82;;;;;;;;;;4258875;33;20038;-72
2023/04/19 13:09:51;;;;;;;8.50;5.53;;;;;;;;;;4254642;33;20077;-74
2023/04/19 13:12:18;;;;;;;6.75;5.65;;;;;;;;;;4250129;33;20038;-73
2023/04/19 13:14:48;;;;;;;9.27;6.50;;;;;;;;;;4234007;33;20059;-72
2023/04/19 13:17:15;;;;;;;10.63;5.37;;;;;;;;;;4234881;33;20497;-72
2023/04/19 13:19:41;;;;;;;7.90;4.70;;;;;;;;;;4222895;34;20046;-72
2023/04/19 13:22:07;;;;;;;7.10;5.20;;;;;;;;;;4222771;34;20546;-72
2023/04/19 13:24:33;;;;;;;13.80;4.68;;;;;;;;;;4222298;34;20046;-79
2023/04/19 13:26:59;;;;;;;6.65;4.62;;;;;;;;;;4221784;33;20076;-72
2023/04/19 13:29:25;;;;;;;10.07;5.03;;;;;;;;;;4229368;33;20066;-73
2023/04/19 13:31:51;;;;;;;13.73;5.22;;;;;;;;;;4222181;34;20099;-72
2023/04/19 13:34:17;;;;;;;8.30;4.93;;;;;;;;;;4222062;33;20042;-71
2023/04/19 13:36:43;;;;;;;6.90;5.28;;;;;;;;;;4219581;34;20082;-77
2023/04/19 13:39:10;;;;;;;5.78;4.57;;;;;;;;;;4225592;33;20384;-71
2023/04/19 13:41:36;;;;;;;4.95;4.07;;;;;;;;;;4222224;34;20086;-72
2023/04/19 13:44:02;;;;;;;6.60;4.53;;;;;;;;;;4221558;34;20066;-72
2023/04/19 13:46:28;;;;;;;10.60;5.20;;;;;;;;;;4219657;34;20039;-71
2023/04/19 13:48:55;;;;;;;8.10;5.35;;;;;;;;;;4213016;34;20058;-72
2023/04/19 13:51:21;;;;;;;8.02;4.65;;;;;;;;;;4225647;33;20038;-71
2023/04/19 13:53:47;;;;;;;5.20;4.53;;;;;;;;;;4230804;33;20546;-72
2023/04/19 13:56:13;;;;;;;6.97;5.18;;;;;;;;;;4240149;33;20221;-72
2023/04/19 13:58:40;;;;;;;8.13;5.15;;;;;;;;;;4245934;33;20109;-72
2023/04/19 14:01:06;;;;;;;10.48;5.32;;;;;;;;;;4255811;33;20029;-78
2023/04/19 14:03:32;;;;;;;10.68;6.15;;;;;;;;;;4264217;33;20042;-72
2023/04/19 14:05:58;;;;;;;11.63;6.35;;;;;;;;;;4260914;33;20082;-72
2023/04/19 14:08:25;;;;;;;9.80;5.78;;;;;;;;;;4265055;33;20026;-71
2023/04/19 14:10:51;;;;;;;14.15;6.28;;;;;;;;;;4256783;33;20109;-78
2023/04/19 14:13:17;;;;;;;12.18;5.68;;;;;;;;;;4259906;33;20053;-74
2023/04/19 14:15:43;;;;;;;10.88;6.78;;;;;;;;;;4263488;33;20060;-72
2023/04/19 14:18:09;;;;;;;11.93;6.68;;;;;;;;;;4259572;33;20054;-72
2023/04/19 14:20:36;;;;;;;11.98;6.97;;;;;;;;;;4251029;33;20030;-72
2023/04/19 14:23:02;;;;;;;;;;;;;;;;;;4260276;33;20108;-79
2023/04/19 14:25:35;;;;;;;;;;;;;;;;;;4242987;33;19957;-73
2023/04/19 14:28:01;;;;;;;;;;;;;;;;;;4248753;33;19976;-73
2023/04/19 14:30:27;;;;;;;;;;;;;;;;;;4248293;33;20017;-74
2023/04/19 14:32:53;;;;;;;;;;;;;;;;;;4248516;33;20000;-74
2023/04/19 14:35:19;;;;;;;;;;;;;;;;;;4240711;33;19961;-78
2023/04/19 14:37:45;;;;;;;;;;;;;;;;;;4241533;33;19992;-73
2023/04/19 14:40:11;;;;;;;;;;;;;;;;;;4239871;33;20000;-72
2023/04/19 14:42:37;;;;;;;;;;;;;;;;;;4242460;33;19964;-73
2023/04/19 14:45:03;;;;;;;;;;;;;;;;;;4239688;33;20353;-72
2023/04/19 14:47:29;;;;;;;;;;;;;;;;;;4239131;33;19950;-72
2023/04/19 14:49:55;;;;;;;;;;;;;;;;;;4240735;33;19994;-73
2023/04/19 14:52:21;;;;;;;;;;;;;;;;;;4230715;33;20344;-72
2023/04/19 14:54:47;;;;;;;;;;;;;;;;;;4227167;33;20033;-73
2023/04/19 14:57:13;;;;;;;;;;;;;;;;;;4242073;33;20000;-74
2023/04/19 14:59:39;;;;;;;;;;;;;;;;;;4244111;33;19950;-73
2023/04/19 15:02:05;;;;;;;;;;;;;;;;;;4243466;33;20198;-73
2023/04/19 15:04:31;;;;;;;;;;;;;;;;;;4241962;33;20020;-72
2023/04/19 15:06:57;;;;;;;;;;;;;;;;;;4258827;33;19997;-74
2023/04/19 15:09:23;;;;;;;;;;;;;;;;;;4264172;33;20022;-78
2023/04/19 15:11:49;;;;;;;;;;;;;;;;;;4263614;33;19967;-72
2023/04/19 15:14:15;;;;;;;;;;;;;;;;;;4264459;33;20001;-73
2023/04/19 15:16:42;;;;;;;;;;;;;;;;;;4264711;33;19995;-72
2023/04/19 15:19:07;;;;;;;;;;;;;;;;;;4232742;33;19954;-71
2023/04/19 15:21:33;;;;;;;;;;;;;;;;;;4232841;33;19987;-76
2023/04/19 15:24:00;;;;;;;;;;;;;;;;;;4232373;33;19981;-73
2023/04/19 15:26:26;;;;;;;;;;;;;;;;;;4233957;33;19974;-75
2023/04/19 15:28:51;;;;;;;;;;;;;;;;;;4204081;34;20039;-73
2023/04/19 15:31:18;;;;;;;;;;;;;;;;;;4205913;34;19949;-73
2023/04/19 15:33:44;;;;;;;;;;;;;;;;;;4205186;34;19943;-73
2023/04/19 15:36:10;;;;;;;;;;;;;;;;;;4205353;34;19950;-73
2023/04/19 15:38:36;;;;;;;;;;;;;;;;;;4205753;34;19970;-74
2023/04/19 15:41:02;;;;;;;;;;;;;;;;;;4204264;34;20341;-74
2023/04/19 15:43:28;;;;;;;21.80;10.00;;;;;;;;;;4206649;34;19939;-72
2023/04/19 15:45:54;;;;;;;;;;;;;;;;;;4204791;33;19942;-72
2023/04/19 15:48:20;;;;;;;;;;;;;;;;;;4234303;33;20784;-74
2023/04/19 15:50:46;;;;;;;;;;;;;;;;;;4256421;33;20586;-72
2023/04/19 15:53:12;;;;;;;;;;;;;;;;;;4264286;33;19997;-72
2023/04/19 15:55:40;;;;;;;;;;;;;;;;;;4264581;33;19984;-73
2023/04/19 15:58:05;;;;;;;;;;;;;;;;;;4263433;33;19951;-73
2023/04/19 16:00:32;;;;;;;;;;;;;;;;;;4266888;33;20587;-73
2023/04/19 16:02:58;;;;;;;;;;;;;;;;;;4265873;33;20370;-74
2023/04/19 16:05:24;;;;;;;;;;;;;;;;;;4266803;33;19948;-73
2023/04/19 16:07:50;;;;;;;;;;;;;;;;;;4265717;33;19955;-73
2023/04/19 16:10:17;;;;;;;;;;;;;;;;;;4264177;33;19978;-72
2023/04/19 16:12:45;;;;;;;;;;;;;;;;;;4267801;33;19953;-74
2023/04/19 16:15:17;;;;;;;16.90;9.55;;;;;;;;;;4234783;33;19950;-73
2023/04/19 16:17:43;;;;;;;14.18;8.50;;;;;;;;;;4236848;33;20046;-78
2023/04/19 16:20:12;;;;;;;20.48;9.63;;;;;;;;;;4221999;34;20406;-73
2023/04/19 16:22:38;;;;;;;13.98;9.57;;;;;;;;;;4222480;34;20032;-74
2023/04/19 16:25:05;;;;;;;15.25;9.45;;;;;;;;;;4223515;33;20417;-73
2023/04/19 16:27:30;;;;;;;17.35;9.32;;;;;;;;;;4223008;34;20047;-74
2023/04/19 16:29:57;;;;;;;18.90;10.30;;;;;;;;;;4220829;34;20042;-74
2023/04/19 16:32:23;;;;;;;21.50;11.25;;;;;;;;;;4224618;34;20090;-73
2023/04/19 16:34:49;;;;;;;23.52;11.52;;;;;;;;;;4223608;34;20120;-72
2023/04/19 16:37:16;;;;;;;17.95;9.27;;;;;;;;;;4211518;34;20064;-71
2023/04/19 16:39:43;;;;;;;19.98;10.75;;;;;;;;;;4220850;34;20058;-73
2023/04/19 16:42:09;;;;;;;19.50;11.57;;;;;;;;;;4221303;34;20970;-72
2023/04/19 16:44:42;;;;;;;24.45;11.18;;;;;;;;;;4222329;34;20115;-74
2023/04/19 16:47:08;;;;;;;16.27;9.23;;;;;;;;;;4246825;33;20083;-71
2023/04/19 16:49:34;;;;;;;22.45;11.20;;;;;;;;;;4256235;33;20505;-72
2023/04/19 16:52:00;;;;;;;25.50;10.13;;;;;;;;;;4266243;33;20030;-73
2023/04/19 16:54:26;;;;;;;18.70;9.82;;;;;;;;;;4267044;33;20061;-73